sensor_id;sensor_type;location;lat;lon;timestamp;P1;durP1;ratioP1;P2;durP2;ratioP2
39214;SDS011;24932;51.746;14.334;2024-02-26T00:00:39;15.53;;;8.5;;
39214;SDS011;24932;51.746;14.334;2024-02-26T00:04:40;12.5;;;7.03;;
39214;SDS011;24932;51.746;14.334;2024-02-26T00:08:40;12.23;;;7.4;;
39214;SDS011;24932;51.746;14.334;2024-02-26T00:12:38;15.57;;;7.77;;
39214;SDS011;24932;51.746;14.334;2024-02-26T00:16:40;16.43;;;9.17;;
39214;SDS011;24932;51.746;14.334;2024-02-26T00:20:38;11.13;;;7.4;;
39214;SDS011;24932;51.746;14.334;2024-02-26T00:24:39;14.1;;;6.63;;
39214;SDS011;24932;51.746;14.334;2024-02-26T00:28:39;11.57;;;6.8;;
39214;SDS011;24932;51.746;14.334;2024-02-26T00:32:39;12.5;;;7.17;;
39214;SDS011;24932;51.746;14.334;2024-02-26T00:36:40;16.47;;;7.3;;
39214;SDS011;24932;51.746;14.334;2024-02-26T00:40:40;10.7;;;7.1;;
39214;SDS011;24932;51.746;14.334;2024-02-26T00:44:40;11.43;;;7.37;;
39214;SDS011;24932;51.746;14.334;2024-02-26T00:48:39;14.2;;;7.47;;
39214;SDS011;24932;51.746;14.334;2024-02-26T00:52:41;14.37;;;8.47;;
39214;SDS011;24932;51.746;14.334;2024-02-26T00:56:40;13.57;;;7.13;;
39214;SDS011;24932;51.746;14.334;2024-02-26T01:00:40;14.53;;;8.73;;
39214;SDS011;24932;51.746;14.334;2024-02-26T01:04:39;18.37;;;8.37;;
39214;SDS011;24932;51.746;14.334;2024-02-26T01:08:40;17.37;;;9.03;;
39214;SDS011;24932;51.746;14.334;2024-02-26T01:12:40;17.93;;;8.7;;
39214;SDS011;24932;51.746;14.334;2024-02-26T01:16:39;19.13;;;9.03;;
39214;SDS011;24932;51.746;14.334;2024-02-26T01:20:38;15.27;;;8.53;;
39214;SDS011;24932;51.746;14.334;2024-02-26T01:24:39;19.9;;;9.43;;
39214;SDS011;24932;51.746;14.334;2024-02-26T01:28:40;19.03;;;9.53;;
39214;SDS011;24932;51.746;14.334;2024-02-26T01:32:40;16.07;;;9.3;;
39214;SDS011;24932;51.746;14.334;2024-02-26T01:36:40;15.2;;;8.57;;
39214;SDS011;24932;51.746;14.334;2024-02-26T01:40:40;24.33;;;10.47;;
39214;SDS011;24932;51.746;14.334;2024-02-26T01:44:39;19.13;;;9.37;;
39214;SDS011;24932;51.746;14.334;2024-02-26T01:48:40;22.17;;;9.83;;
39214;SDS011;24932;51.746;14.334;2024-02-26T01:52:40;16.97;;;8.57;;
39214;SDS011;24932;51.746;14.334;2024-02-26T01:56:40;15.7;;;9.33;;
39214;SDS011;24932;51.746;14.334;2024-02-26T02:00:38;16.9;;;8.9;;
39214;SDS011;24932;51.746;14.334;2024-02-26T02:04:38;16.63;;;7.97;;
39214;SDS011;24932;51.746;14.334;2024-02-26T02:08:40;15.87;;;9.93;;
39214;SDS011;24932;51.746;14.334;2024-02-26T02:12:38;15.13;;;8.6;;
39214;SDS011;24932;51.746;14.334;2024-02-26T02:16:39;19.77;;;9.27;;
39214;SDS011;24932;51.746;14.334;2024-02-26T02:20:40;21.7;;;9.03;;
39214;SDS011;24932;51.746;14.334;2024-02-26T02:24:38;20.93;;;9.57;;
39214;SDS011;24932;51.746;14.334;2024-02-26T02:28:39;18.33;;;9.33;;
39214;SDS011;24932;51.746;14.334;2024-02-26T02:32:40;18.27;;;9.8;;
39214;SDS011;24932;51.746;14.334;2024-02-26T02:36:48;17.87;;;9.27;;
39214;SDS011;24932;51.746;14.334;2024-02-26T02:40:38;17.77;;;8.83;;
39214;SDS011;24932;51.746;14.334;2024-02-26T02:44:40;17.73;;;9.57;;
39214;SDS011;24932;51.746;14.334;2024-02-26T02:48:41;15.63;;;9.43;;
39214;SDS011;24932;51.746;14.334;2024-02-26T02:52:39;21.6;;;9.63;;
39214;SDS011;24932;51.746;14.334;2024-02-26T02:56:39;19.8;;;9.6;;
39214;SDS011;24932;51.746;14.334;2024-02-26T03:00:40;18.4;;;9.4;;
39214;SDS011;24932;51.746;14.334;2024-02-26T03:04:39;22.47;;;9.33;;
39214;SDS011;24932;51.746;14.334;2024-02-26T03:08:40;23.03;;;10.83;;
39214;SDS011;24932;51.746;14.334;2024-02-26T03:12:39;22.47;;;11.73;;
39214;SDS011;24932;51.746;14.334;2024-02-26T03:16:39;27.57;;;11.37;;
39214;SDS011;24932;51.746;14.334;2024-02-26T03:20:38;25.53;;;12.7;;
39214;SDS011;24932;51.746;14.334;2024-02-26T03:24:39;27.63;;;11.8;;
39214;SDS011;24932;51.746;14.334;2024-02-26T03:28:39;28.37;;;12.23;;
39214;SDS011;24932;51.746;14.334;2024-02-26T03:32:39;31.7;;;11.9;;
39214;SDS011;24932;51.746;14.334;2024-02-26T03:36:40;21.27;;;12.0;;
39214;SDS011;24932;51.746;14.334;2024-02-26T03:40:38;25.33;;;12.27;;
39214;SDS011;24932;51.746;14.334;2024-02-26T03:44:38;20.7;;;11.07;;
39214;SDS011;24932;51.746;14.334;2024-02-26T03:48:39;29.2;;;12.83;;
39214;SDS011;24932;51.746;14.334;2024-02-26T03:52:38;28.93;;;13.2;;
39214;SDS011;24932;51.746;14.334;2024-02-26T03:56:39;25.53;;;13.3;;
39214;SDS011;24932;51.746;14.334;2024-02-26T04:00:40;20.73;;;11.93;;
39214;SDS011;24932;51.746;14.334;2024-02-26T04:04:38;24.27;;;13.23;;
39214;SDS011;24932;51.746;14.334;2024-02-26T04:08:40;30.1;;;13.53;;
39214;SDS011;24932;51.746;14.334;2024-02-26T04:12:39;30.03;;;12.8;;
39214;SDS011;24932;51.746;14.334;2024-02-26T04:16:39;28.07;;;11.9;;
39214;SDS011;24932;51.746;14.334;2024-02-26T04:20:39;24.83;;;12.13;;
39214;SDS011;24932;51.746;14.334;2024-02-26T04:24:39;26.77;;;12.2;;
39214;SDS011;24932;51.746;14.334;2024-02-26T04:28:40;24.4;;;12.63;;
39214;SDS011;24932;51.746;14.334;2024-02-26T04:32:38;35.93;;;14.47;;
39214;SDS011;24932;51.746;14.334;2024-02-26T04:36:39;26.93;;;13.93;;
39214;SDS011;24932;51.746;14.334;2024-02-26T04:40:39;32.67;;;14.97;;
39214;SDS011;24932;51.746;14.334;2024-02-26T04:44:40;30.73;;;14.53;;
39214;SDS011;24932;51.746;14.334;2024-02-26T04:48:40;30.57;;;15.03;;
39214;SDS011;24932;51.746;14.334;2024-02-26T04:52:40;37.47;;;17.63;;
39214;SDS011;24932;51.746;14.334;2024-02-26T04:56:39;34.5;;;16.73;;
39214;SDS011;24932;51.746;14.334;2024-02-26T05:00:40;35.57;;;16.53;;
39214;SDS011;24932;51.746;14.334;2024-02-26T05:04:38;38.67;;;18.07;;
39214;SDS011;24932;51.746;14.334;2024-02-26T05:08:38;32.43;;;14.9;;
39214;SDS011;24932;51.746;14.334;2024-02-26T05:12:40;39.67;;;17.73;;
39214;SDS011;24932;51.746;14.334;2024-02-26T05:16:38;47.1;;;18.93;;
39214;SDS011;24932;51.746;14.334;2024-02-26T05:20:39;34.63;;;15.13;;
39214;SDS011;24932;51.746;14.334;2024-02-26T05:24:40;45.23;;;19.8;;
39214;SDS011;24932;51.746;14.334;2024-02-26T05:28:39;34.53;;;17.1;;
39214;SDS011;24932;51.746;14.334;2024-02-26T05:32:40;40.67;;;18.17;;
39214;SDS011;24932;51.746;14.334;2024-02-26T05:36:40;42.1;;;19.67;;
39214;SDS011;24932;51.746;14.334;2024-02-26T05:40:40;38.07;;;18.97;;
39214;SDS011;24932;51.746;14.334;2024-02-26T05:44:40;39.6;;;20.23;;
39214;SDS011;24932;51.746;14.334;2024-02-26T05:48:40;38.57;;;18.33;;
39214;SDS011;24932;51.746;14.334;2024-02-26T05:52:40;47.3;;;20.2;;
39214;SDS011;24932;51.746;14.334;2024-02-26T05:56:38;49.2;;;20.13;;
39214;SDS011;24932;51.746;14.334;2024-02-26T06:00:40;41.8;;;20.23;;
39214;SDS011;24932;51.746;14.334;2024-02-26T06:04:40;42.8;;;19.73;;
39214;SDS011;24932;51.746;14.334;2024-02-26T06:08:39;52.87;;;22.2;;
39214;SDS011;24932;51.746;14.334;2024-02-26T06:12:39;47.13;;;23.1;;
39214;SDS011;24932;51.746;14.334;2024-02-26T06:16:40;55.6;;;24.17;;
39214;SDS011;24932;51.746;14.334;2024-02-26T06:20:40;54.97;;;24.1;;
39214;SDS011;24932;51.746;14.334;2024-02-26T06:24:40;62.43;;;26.7;;
39214;SDS011;24932;51.746;14.334;2024-02-26T06:28:39;60.5;;;26.9;;
39214;SDS011;24932;51.746;14.334;2024-02-26T06:32:40;56.53;;;25.23;;
39214;SDS011;24932;51.746;14.334;2024-02-26T06:36:39;57.13;;;27.57;;
39214;SDS011;24932;51.746;14.334;2024-02-26T06:40:40;58.17;;;27.63;;
39214;SDS011;24932;51.746;14.334;2024-02-26T06:44:40;57.0;;;28.87;;
39214;SDS011;24932;51.746;14.334;2024-02-26T06:48:39;62.33;;;29.67;;
39214;SDS011;24932;51.746;14.334;2024-02-26T06:52:39;54.67;;;26.65;;
39214;SDS011;24932;51.746;14.334;2024-02-26T06:56:40;54.83;;;26.12;;
39214;SDS011;24932;51.746;14.334;2024-02-26T07:00:40;60.92;;;28.15;;
39214;SDS011;24932;51.746;14.334;2024-02-26T07:04:38;48.95;;;26.7;;
39214;SDS011;24932;51.746;14.334;2024-02-26T07:08:40;55.8;;;27.37;;
39214;SDS011;24932;51.746;14.334;2024-02-26T07:12:39;50.57;;;24.0;;
39214;SDS011;24932;51.746;14.334;2024-02-26T07:16:40;63.72;;;25.55;;
39214;SDS011;24932;51.746;14.334;2024-02-26T07:20:40;48.7;;;24.2;;
39214;SDS011;24932;51.746;14.334;2024-02-26T07:24:39;56.8;;;27.93;;
39214;SDS011;24932;51.746;14.334;2024-02-26T07:28:39;57.23;;;28.3;;
39214;SDS011;24932;51.746;14.334;2024-02-26T07:32:39;59.03;;;26.12;;
39214;SDS011;24932;51.746;14.334;2024-02-26T07:36:39;54.3;;;25.73;;
39214;SDS011;24932;51.746;14.334;2024-02-26T07:40:56;54.43;;;25.83;;
39214;SDS011;24932;51.746;14.334;2024-02-26T07:44:40;45.73;;;22.37;;
39214;SDS011;24932;51.746;14.334;2024-02-26T07:48:40;53.05;;;24.63;;
39214;SDS011;24932;51.746;14.334;2024-02-26T07:52:39;49.72;;;23.52;;
39214;SDS011;24932;51.746;14.334;2024-02-26T07:56:38;45.67;;;22.97;;
39214;SDS011;24932;51.746;14.334;2024-02-26T08:00:40;44.58;;;25.37;;
39214;SDS011;24932;51.746;14.334;2024-02-26T08:04:38;41.63;;;21.08;;
39214;SDS011;24932;51.746;14.334;2024-02-26T08:08:39;45.28;;;22.58;;
39214;SDS011;24932;51.746;14.334;2024-02-26T08:12:39;48.33;;;24.52;;
39214;SDS011;24932;51.746;14.334;2024-02-26T08:16:40;42.42;;;20.5;;
39214;SDS011;24932;51.746;14.334;2024-02-26T08:20:40;47.38;;;23.67;;
39214;SDS011;24932;51.746;14.334;2024-02-26T08:24:39;42.78;;;21.25;;
39214;SDS011;24932;51.746;14.334;2024-02-26T08:28:39;40.45;;;21.73;;
39214;SDS011;24932;51.746;14.334;2024-02-26T08:32:40;45.83;;;22.2;;
39214;SDS011;24932;51.746;14.334;2024-02-26T08:36:38;40.0;;;20.9;;
39214;SDS011;24932;51.746;14.334;2024-02-26T08:40:39;33.83;;;19.45;;
39214;SDS011;24932;51.746;14.334;2024-02-26T08:44:39;41.9;;;21.92;;
39214;SDS011;24932;51.746;14.334;2024-02-26T08:48:40;39.17;;;19.83;;
39214;SDS011;24932;51.746;14.334;2024-02-26T08:52:39;33.67;;;18.85;;
39214;SDS011;24932;51.746;14.334;2024-02-26T08:56:40;32.05;;;17.8;;
39214;SDS011;24932;51.746;14.334;2024-02-26T09:00:40;27.67;;;16.52;;
39214;SDS011;24932;51.746;14.334;2024-02-26T09:04:40;32.03;;;16.1;;
39214;SDS011;24932;51.746;14.334;2024-02-26T09:08:39;25.9;;;15.25;;
39214;SDS011;24932;51.746;14.334;2024-02-26T09:12:39;28.7;;;14.55;;
39214;SDS011;24932;51.746;14.334;2024-02-26T09:16:38;28.3;;;14.82;;
39214;SDS011;24932;51.746;14.334;2024-02-26T09:20:38;26.3;;;14.63;;
39214;SDS011;24932;51.746;14.334;2024-02-26T09:24:39;27.48;;;13.65;;
39214;SDS011;24932;51.746;14.334;2024-02-26T09:28:40;33.3;;;16.08;;
39214;SDS011;24932;51.746;14.334;2024-02-26T09:32:40;28.45;;;14.68;;
39214;SDS011;24932;51.746;14.334;2024-02-26T09:36:39;26.05;;;13.27;;
39214;SDS011;24932;51.746;14.334;2024-02-26T09:40:39;24.1;;;13.15;;
39214;SDS011;24932;51.746;14.334;2024-02-26T09:44:40;21.42;;;12.25;;
39214;SDS011;24932;51.746;14.334;2024-02-26T09:48:40;23.05;;;11.45;;
39214;SDS011;24932;51.746;14.334;2024-02-26T09:52:39;19.4;;;10.93;;
39214;SDS011;24932;51.746;14.334;2024-02-26T09:56:49;22.08;;;10.68;;
39214;SDS011;24932;51.746;14.334;2024-02-26T10:00:39;20.17;;;11.2;;
39214;SDS011;24932;51.746;14.334;2024-02-26T10:04:40;18.35;;;10.52;;
39214;SDS011;24932;51.746;14.334;2024-02-26T10:08:40;17.5;;;10.0;;
39214;SDS011;24932;51.746;14.334;2024-02-26T10:12:39;22.7;;;10.38;;
39214;SDS011;24932;51.746;14.334;2024-02-26T10:16:39;16.58;;;9.7;;
39214;SDS011;24932;51.746;14.334;2024-02-26T10:20:38;24.23;;;10.57;;
39214;SDS011;24932;51.746;14.334;2024-02-26T10:24:40;20.58;;;10.2;;
39214;SDS011;24932;51.746;14.334;2024-02-26T10:28:41;19.48;;;8.8;;
39214;SDS011;24932;51.746;14.334;2024-02-26T10:32:40;17.85;;;8.77;;
39214;SDS011;24932;51.746;14.334;2024-02-26T10:36:53;16.17;;;8.9;;
39214;SDS011;24932;51.746;14.334;2024-02-26T10:40:40;20.42;;;11.88;;
39214;SDS011;24932;51.746;14.334;2024-02-26T10:44:40;18.62;;;9.38;;
39214;SDS011;24932;51.746;14.334;2024-02-26T10:48:38;19.2;;;9.05;;
39214;SDS011;24932;51.746;14.334;2024-02-26T10:52:39;23.02;;;10.98;;
39214;SDS011;24932;51.746;14.334;2024-02-26T10:56:38;26.52;;;10.4;;
39214;SDS011;24932;51.746;14.334;2024-02-26T11:00:39;16.8;;;10.02;;
39214;SDS011;24932;51.746;14.334;2024-02-26T11:04:40;19.0;;;10.7;;
39214;SDS011;24932;51.746;14.334;2024-02-26T11:08:39;20.98;;;10.3;;
39214;SDS011;24932;51.746;14.334;2024-02-26T11:12:39;19.48;;;10.1;;
39214;SDS011;24932;51.746;14.334;2024-02-26T11:16:39;22.58;;;10.57;;
39214;SDS011;24932;51.746;14.334;2024-02-26T11:20:38;18.45;;;9.32;;
39214;SDS011;24932;51.746;14.334;2024-02-26T11:24:40;17.62;;;10.8;;
39214;SDS011;24932;51.746;14.334;2024-02-26T11:28:40;16.52;;;9.55;;
39214;SDS011;24932;51.746;14.334;2024-02-26T11:32:39;16.45;;;10.15;;
39214;SDS011;24932;51.746;14.334;2024-02-26T11:36:39;16.42;;;9.48;;
39214;SDS011;24932;51.746;14.334;2024-02-26T11:40:40;17.62;;;9.32;;
39214;SDS011;24932;51.746;14.334;2024-02-26T11:44:40;12.35;;;8.38;;
39214;SDS011;24932;51.746;14.334;2024-02-26T11:48:39;13.13;;;7.35;;
39214;SDS011;24932;51.746;14.334;2024-02-26T11:52:40;17.55;;;7.3;;
39214;SDS011;24932;51.746;14.334;2024-02-26T11:56:40;14.9;;;7.2;;
39214;SDS011;24932;51.746;14.334;2024-02-26T12:00:40;19.58;;;8.1;;
39214;SDS011;24932;51.746;14.334;2024-02-26T12:04:39;13.13;;;7.07;;
39214;SDS011;24932;51.746;14.334;2024-02-26T12:08:38;16.62;;;7.82;;
39214;SDS011;24932;51.746;14.334;2024-02-26T12:12:40;15.93;;;9.98;;
39214;SDS011;24932;51.746;14.334;2024-02-26T12:16:40;18.12;;;8.52;;
39214;SDS011;24932;51.746;14.334;2024-02-26T12:20:38;15.68;;;8.45;;
39214;SDS011;24932;51.746;14.334;2024-02-26T12:24:39;14.95;;;8.55;;
39214;SDS011;24932;51.746;14.334;2024-02-26T12:28:39;12.55;;;8.23;;
39214;SDS011;24932;51.746;14.334;2024-02-26T12:32:39;16.73;;;8.48;;
39214;SDS011;24932;51.746;14.334;2024-02-26T12:36:39;15.88;;;7.95;;
39214;SDS011;24932;51.746;14.334;2024-02-26T12:40:40;13.02;;;8.68;;
39214;SDS011;24932;51.746;14.334;2024-02-26T12:44:39;21.25;;;8.57;;
39214;SDS011;24932;51.746;14.334;2024-02-26T12:48:40;17.25;;;7.3;;
39214;SDS011;24932;51.746;14.334;2024-02-26T12:52:42;13.62;;;7.43;;
39214;SDS011;24932;51.746;14.334;2024-02-26T12:56:40;16.67;;;7.28;;
39214;SDS011;24932;51.746;14.334;2024-02-26T13:00:39;14.73;;;7.75;;
39214;SDS011;24932;51.746;14.334;2024-02-26T13:04:40;11.25;;;5.97;;
39214;SDS011;24932;51.746;14.334;2024-02-26T13:08:39;14.73;;;7.22;;
39214;SDS011;24932;51.746;14.334;2024-02-26T13:12:42;14.82;;;7.8;;
39214;SDS011;24932;51.746;14.334;2024-02-26T13:16:39;12.77;;;6.97;;
39214;SDS011;24932;51.746;14.334;2024-02-26T13:20:39;24.42;;;6.47;;
39214;SDS011;24932;51.746;14.334;2024-02-26T13:24:39;12.13;;;7.65;;
39214;SDS011;24932;51.746;14.334;2024-02-26T13:28:40;15.15;;;7.07;;
39214;SDS011;24932;51.746;14.334;2024-02-26T13:32:40;16.15;;;7.78;;
39214;SDS011;24932;51.746;14.334;2024-02-26T13:36:38;13.4;;;7.65;;
39214;SDS011;24932;51.746;14.334;2024-02-26T13:40:40;16.98;;;7.25;;
39214;SDS011;24932;51.746;14.334;2024-02-26T13:44:39;11.27;;;7.03;;
39214;SDS011;24932;51.746;14.334;2024-02-26T13:48:39;14.32;;;8.2;;
39214;SDS011;24932;51.746;14.334;2024-02-26T13:52:39;13.5;;;6.47;;
39214;SDS011;24932;51.746;14.334;2024-02-26T13:56:39;12.77;;;7.45;;
39214;SDS011;24932;51.746;14.334;2024-02-26T14:00:39;21.1;;;8.32;;
39214;SDS011;24932;51.746;14.334;2024-02-26T14:04:38;10.57;;;7.95;;
39214;SDS011;24932;51.746;14.334;2024-02-26T14:08:40;11.85;;;6.55;;
39214;SDS011;24932;51.746;14.334;2024-02-26T14:12:39;13.13;;;6.2;;
39214;SDS011;24932;51.746;14.334;2024-02-26T14:16:39;15.27;;;6.18;;
39214;SDS011;24932;51.746;14.334;2024-02-26T14:20:38;14.5;;;7.22;;
39214;SDS011;24932;51.746;14.334;2024-02-26T14:24:39;15.3;;;6.87;;
39214;SDS011;24932;51.746;14.334;2024-02-26T14:28:40;8.38;;;5.8;;
39214;SDS011;24932;51.746;14.334;2024-02-26T14:32:40;11.27;;;4.82;;
39214;SDS011;24932;51.746;14.334;2024-02-26T14:36:39;9.25;;;5.53;;
39214;SDS011;24932;51.746;14.334;2024-02-26T14:40:40;10.57;;;4.43;;
39214;SDS011;24932;51.746;14.334;2024-02-26T14:44:38;10.07;;;4.65;;
39214;SDS011;24932;51.746;14.334;2024-02-26T14:48:40;6.7;;;4.03;;
39214;SDS011;24932;51.746;14.334;2024-02-26T14:52:39;9.07;;;4.57;;
39214;SDS011;24932;51.746;14.334;2024-02-26T14:56:38;16.55;;;4.82;;
39214;SDS011;24932;51.746;14.334;2024-02-26T15:00:38;8.93;;;4.75;;
39214;SDS011;24932;51.746;14.334;2024-02-26T15:04:40;9.4;;;4.78;;
39214;SDS011;24932;51.746;14.334;2024-02-26T15:08:40;10.45;;;5.43;;
39214;SDS011;24932;51.746;14.334;2024-02-26T15:12:39;8.38;;;5.43;;
39214;SDS011;24932;51.746;14.334;2024-02-26T15:16:38;11.77;;;5.9;;
39214;SDS011;24932;51.746;14.334;2024-02-26T15:20:39;11.45;;;5.47;;
39214;SDS011;24932;51.746;14.334;2024-02-26T15:24:40;17.48;;;6.28;;
39214;SDS011;24932;51.746;14.334;2024-02-26T15:28:40;13.0;;;6.55;;
39214;SDS011;24932;51.746;14.334;2024-02-26T15:32:39;16.58;;;7.15;;
39214;SDS011;24932;51.746;14.334;2024-02-26T15:36:40;13.5;;;6.03;;
39214;SDS011;24932;51.746;14.334;2024-02-26T15:40:38;11.55;;;6.72;;
39214;SDS011;24932;51.746;14.334;2024-02-26T15:44:39;10.23;;;6.28;;
39214;SDS011;24932;51.746;14.334;2024-02-26T15:48:39;12.18;;;6.57;;
39214;SDS011;24932;51.746;14.334;2024-02-26T15:52:39;16.48;;;6.8;;
39214;SDS011;24932;51.746;14.334;2024-02-26T15:56:40;18.08;;;6.55;;
39214;SDS011;24932;51.746;14.334;2024-02-26T16:00:40;13.77;;;6.87;;
39214;SDS011;24932;51.746;14.334;2024-02-26T16:04:39;15.8;;;7.37;;
39214;SDS011;24932;51.746;14.334;2024-02-26T16:08:40;13.68;;;7.03;;
39214;SDS011;24932;51.746;14.334;2024-02-26T16:12:41;12.45;;;6.47;;
39214;SDS011;24932;51.746;14.334;2024-02-26T16:16:41;10.32;;;6.22;;
39214;SDS011;24932;51.746;14.334;2024-02-26T16:20:40;16.45;;;7.1;;
39214;SDS011;24932;51.746;14.334;2024-02-26T16:24:40;12.07;;;7.15;;
39214;SDS011;24932;51.746;14.334;2024-02-26T16:28:40;12.25;;;7.45;;
39214;SDS011;24932;51.746;14.334;2024-02-26T16:32:40;19.12;;;6.15;;
39214;SDS011;24932;51.746;14.334;2024-02-26T16:36:38;14.07;;;6.07;;
39214;SDS011;24932;51.746;14.334;2024-02-26T16:40:40;13.88;;;6.55;;
39214;SDS011;24932;51.746;14.334;2024-02-26T16:44:39;13.73;;;6.4;;
39214;SDS011;24932;51.746;14.334;2024-02-26T16:48:40;15.98;;;6.7;;
39214;SDS011;24932;51.746;14.334;2024-02-26T16:52:38;15.93;;;7.82;;
39214;SDS011;24932;51.746;14.334;2024-02-26T16:56:40;10.73;;;6.7;;
39214;SDS011;24932;51.746;14.334;2024-02-26T17:00:40;11.9;;;6.6;;
39214;SDS011;24932;51.746;14.334;2024-02-26T17:04:39;10.6;;;6.4;;
39214;SDS011;24932;51.746;14.334;2024-02-26T17:08:40;14.13;;;7.82;;
39214;SDS011;24932;51.746;14.334;2024-02-26T17:12:39;15.55;;;7.15;;
39214;SDS011;24932;51.746;14.334;2024-02-26T17:16:39;11.43;;;7.05;;
39214;SDS011;24932;51.746;14.334;2024-02-26T17:20:39;15.52;;;9.0;;
39214;SDS011;24932;51.746;14.334;2024-02-26T17:24:38;19.92;;;10.65;;
39214;SDS011;24932;51.746;14.334;2024-02-26T17:28:39;20.3;;;10.8;;
39214;SDS011;24932;51.746;14.334;2024-02-26T17:32:40;23.7;;;9.38;;
39214;SDS011;24932;51.746;14.334;2024-02-26T17:36:38;19.05;;;9.9;;
39214;SDS011;24932;51.746;14.334;2024-02-26T17:40:39;22.48;;;10.93;;
39214;SDS011;24932;51.746;14.334;2024-02-26T17:44:40;16.1;;;9.1;;
39214;SDS011;24932;51.746;14.334;2024-02-26T17:48:39;19.08;;;9.48;;
39214;SDS011;24932;51.746;14.334;2024-02-26T17:52:38;19.8;;;9.65;;
39214;SDS011;24932;51.746;14.334;2024-02-26T17:56:38;17.77;;;9.2;;
39214;SDS011;24932;51.746;14.334;2024-02-26T18:00:38;18.02;;;9.4;;
39214;SDS011;24932;51.746;14.334;2024-02-26T18:04:39;16.85;;;10.05;;
39214;SDS011;24932;51.746;14.334;2024-02-26T18:08:39;18.5;;;10.43;;
39214;SDS011;24932;51.746;14.334;2024-02-26T18:12:39;17.4;;;10.82;;
39214;SDS011;24932;51.746;14.334;2024-02-26T18:16:39;23.33;;;12.23;;
39214;SDS011;24932;51.746;14.334;2024-02-26T18:20:40;24.73;;;11.88;;
39214;SDS011;24932;51.746;14.334;2024-02-26T18:24:39;24.85;;;12.55;;
39214;SDS011;24932;51.746;14.334;2024-02-26T18:28:40;24.55;;;12.25;;
39214;SDS011;24932;51.746;14.334;2024-02-26T18:32:40;21.85;;;10.65;;
39214;SDS011;24932;51.746;14.334;2024-02-26T18:36:41;20.62;;;12.02;;
39214;SDS011;24932;51.746;14.334;2024-02-26T18:40:39;24.3;;;13.3;;
39214;SDS011;24932;51.746;14.334;2024-02-26T18:44:39;23.55;;;12.52;;
39214;SDS011;24932;51.746;14.334;2024-02-26T18:48:38;24.15;;;12.9;;
39214;SDS011;24932;51.746;14.334;2024-02-26T18:52:40;28.35;;;13.27;;
39214;SDS011;24932;51.746;14.334;2024-02-26T18:56:39;23.52;;;12.13;;
39214;SDS011;24932;51.746;14.334;2024-02-26T19:00:39;26.5;;;14.3;;
39214;SDS011;24932;51.746;14.334;2024-02-26T19:04:40;24.73;;;12.8;;
39214;SDS011;24932;51.746;14.334;2024-02-26T19:08:39;26.87;;;12.9;;
39214;SDS011;24932;51.746;14.334;2024-02-26T19:12:40;30.0;;;13.68;;
39214;SDS011;24932;51.746;14.334;2024-02-26T19:16:39;25.2;;;13.77;;
39214;SDS011;24932;51.746;14.334;2024-02-26T19:20:39;24.1;;;13.3;;
39214;SDS011;24932;51.746;14.334;2024-02-26T19:24:40;24.63;;;13.85;;
39214;SDS011;24932;51.746;14.334;2024-02-26T19:28:40;27.87;;;14.65;;
39214;SDS011;24932;51.746;14.334;2024-02-26T19:32:40;33.22;;;14.52;;
39214;SDS011;24932;51.746;14.334;2024-02-26T19:36:40;32.63;;;15.5;;
39214;SDS011;24932;51.746;14.334;2024-02-26T19:40:39;25.4;;;13.57;;
39214;SDS011;24932;51.746;14.334;2024-02-26T19:44:38;27.23;;;14.95;;
39214;SDS011;24932;51.746;14.334;2024-02-26T19:48:39;28.55;;;14.3;;
39214;SDS011;24932;51.746;14.334;2024-02-26T19:52:39;25.58;;;14.85;;
39214;SDS011;24932;51.746;14.334;2024-02-26T19:56:40;26.92;;;14.35;;
39214;SDS011;24932;51.746;14.334;2024-02-26T20:00:39;32.25;;;15.27;;
39214;SDS011;24932;51.746;14.334;2024-02-26T20:04:40;25.48;;;13.95;;
39214;SDS011;24932;51.746;14.334;2024-02-26T20:08:40;35.75;;;14.7;;
39214;SDS011;24932;51.746;14.334;2024-02-26T20:12:39;30.58;;;15.7;;
39214;SDS011;24932;51.746;14.334;2024-02-26T20:16:39;28.23;;;14.95;;
39214;SDS011;24932;51.746;14.334;2024-02-26T20:20:40;30.77;;;16.08;;
39214;SDS011;24932;51.746;14.334;2024-02-26T20:24:39;31.48;;;16.17;;
39214;SDS011;24932;51.746;14.334;2024-02-26T20:28:40;32.4;;;15.85;;
39214;SDS011;24932;51.746;14.334;2024-02-26T20:32:39;27.9;;;16.33;;
39214;SDS011;24932;51.746;14.334;2024-02-26T20:36:39;35.3;;;16.48;;
39214;SDS011;24932;51.746;14.334;2024-02-26T20:40:39;32.3;;;16.12;;
39214;SDS011;24932;51.746;14.334;2024-02-26T20:44:40;29.98;;;16.62;;
39214;SDS011;24932;51.746;14.334;2024-02-26T20:48:39;29.83;;;16.42;;
39214;SDS011;24932;51.746;14.334;2024-02-26T20:52:40;30.3;;;16.6;;
39214;SDS011;24932;51.746;14.334;2024-02-26T20:56:38;36.3;;;18.75;;
39214;SDS011;24932;51.746;14.334;2024-02-26T21:00:39;28.23;;;15.93;;
39214;SDS011;24932;51.746;14.334;2024-02-26T21:04:40;30.92;;;16.27;;
39214;SDS011;24932;51.746;14.334;2024-02-26T21:08:39;34.35;;;15.93;;
39214;SDS011;24932;51.746;14.334;2024-02-26T21:12:40;32.13;;;15.3;;
39214;SDS011;24932;51.746;14.334;2024-02-26T21:16:40;32.33;;;16.8;;
39214;SDS011;24932;51.746;14.334;2024-02-26T21:20:39;31.6;;;17.42;;
39214;SDS011;24932;51.746;14.334;2024-02-26T21:24:40;31.95;;;16.45;;
39214;SDS011;24932;51.746;14.334;2024-02-26T21:28:40;31.9;;;17.48;;
39214;SDS011;24932;51.746;14.334;2024-02-26T21:32:39;36.45;;;18.62;;
39214;SDS011;24932;51.746;14.334;2024-02-26T21:36:39;29.33;;;16.12;;
39214;SDS011;24932;51.746;14.334;2024-02-26T21:40:40;36.6;;;18.67;;
39214;SDS011;24932;51.746;14.334;2024-02-26T21:44:40;36.05;;;17.58;;
39214;SDS011;24932;51.746;14.334;2024-02-26T21:48:40;33.38;;;18.15;;
39214;SDS011;24932;51.746;14.334;2024-02-26T21:52:39;31.75;;;17.87;;
39214;SDS011;24932;51.746;14.334;2024-02-26T21:56:39;32.28;;;18.27;;
39214;SDS011;24932;51.746;14.334;2024-02-26T22:00:39;36.85;;;15.18;;
39214;SDS011;24932;51.746;14.334;2024-02-26T22:04:40;29.33;;;17.23;;
39214;SDS011;24932;51.746;14.334;2024-02-26T22:08:39;27.37;;;16.08;;
39214;SDS011;24932;51.746;14.334;2024-02-26T22:12:39;28.02;;;15.77;;
39214;SDS011;24932;51.746;14.334;2024-02-26T22:16:39;33.13;;;16.02;;
39214;SDS011;24932;51.746;14.334;2024-02-26T22:20:40;31.7;;;15.45;;
39214;SDS011;24932;51.746;14.334;2024-02-26T22:24:40;30.0;;;15.88;;
39214;SDS011;24932;51.746;14.334;2024-02-26T22:28:39;28.17;;;15.55;;
39214;SDS011;24932;51.746;14.334;2024-02-26T22:32:40;28.75;;;15.02;;
39214;SDS011;24932;51.746;14.334;2024-02-26T22:36:39;32.2;;;15.73;;
39214;SDS011;24932;51.746;14.334;2024-02-26T22:40:40;25.45;;;16.1;;
39214;SDS011;24932;51.746;14.334;2024-02-26T22:44:40;31.83;;;16.1;;
39214;SDS011;24932;51.746;14.334;2024-02-26T22:48:40;28.87;;;16.05;;
39214;SDS011;24932;51.746;14.334;2024-02-26T22:52:39;32.63;;;15.95;;
39214;SDS011;24932;51.746;14.334;2024-02-26T22:56:40;30.4;;;15.8;;
39214;SDS011;24932;51.746;14.334;2024-02-26T23:00:39;28.77;;;16.48;;
39214;SDS011;24932;51.746;14.334;2024-02-26T23:04:39;29.67;;;15.38;;
39214;SDS011;24932;51.746;14.334;2024-02-26T23:08:39;29.8;;;15.82;;
39214;SDS011;24932;51.746;14.334;2024-02-26T23:12:39;31.1;;;14.55;;
39214;SDS011;24932;51.746;14.334;2024-02-26T23:16:38;27.35;;;14.85;;
39214;SDS011;24932;51.746;14.334;2024-02-26T23:20:39;27.98;;;15.6;;